Time;durP1;ratioP1;P1;durP2;ratioP2;P2;SDS_P1;SDS_P2;PMS_P1;PMS_P2;Temp;Humidity;BMP_temperature;BMP_pressure;BME280_temperature;BME280_humidity;BME280_pressure;Samples;Min_cycle;Max_cycle;Signal;HPM_P1;HPM_P2
2022/02/15 00:00:04;;;;;;;22.52;10.48;;;;;;;19.80;17.70;97711.34;5016577;28;20040;-79
2022/02/15 00:02:30;;;;;;;17.55;8.25;;;;;;;19.67;17.73;97702.72;5014824;28;20030;-79
2022/02/15 00:04:56;;;;;;;23.40;10.82;;;;;;;18.44;18.87;97706.38;5009376;28;20508;-79
2022/02/15 00:07:22;;;;;;;19.88;9.40;;;;;;;19.46;18.22;97705.72;5010823;28;20521;-79
2022/02/15 00:09:48;;;;;;;22.98;8.77;;;;;;;20.17;17.34;97708.53;5011371;28;20032;-79
2022/02/15 00:12:14;;;;;;;19.02;8.57;;;;;;;19.93;17.64;97701.22;5015847;28;20037;-79
2022/02/15 00:14:40;;;;;;;21.77;8.88;;;;;;;20.30;17.24;97701.25;5006518;28;20041;-79
2022/02/15 00:17:06;;;;;;;23.83;10.52;;;;;;;19.66;17.79;97698.34;5011619;28;20034;-79
2022/02/15 00:19:32;;;;;;;26.48;9.52;;;;;;;18.84;18.63;97710.53;5009873;28;20037;-79
2022/02/15 00:21:59;;;;;;;20.05;8.20;;;;;;;19.07;18.73;97708.00;5009848;28;20065;-79
2022/02/15 00:24:25;;;;;;;16.83;8.10;;;;;;;19.70;18.02;97704.66;5011712;28;20026;-79
2022/02/15 00:26:51;;;;;;;18.27;7.93;;;;;;;20.18;17.51;97701.75;5009283;28;20032;-79
2022/02/15 00:29:17;;;;;;;23.17;10.05;;;;;;;20.60;17.14;97701.22;5010781;28;20394;-79
2022/02/15 00:31:43;;;;;;;19.30;8.18;;;;;;;20.50;17.15;97695.78;5010247;28;20033;-79
2022/02/15 00:34:09;;;;;;;17.48;8.10;;;;;;;20.91;16.72;97704.75;5011160;28;20105;-79
2022/02/15 00:36:35;;;;;;;18.02;8.05;;;;;;;20.57;17.11;97704.06;5011100;28;20022;-79
2022/02/15 00:39:02;;;;;;;20.92;8.65;;;;;;;19.98;17.44;97695.22;5010738;28;20034;-79
2022/02/15 00:41:28;;;;;;;14.35;8.05;;;;;;;19.75;17.71;97703.44;5009795;28;20486;-79
2022/02/15 00:43:54;;;;;;;21.17;9.15;;;;;;;18.42;19.12;97698.47;5010738;28;20029;-79
2022/02/15 00:46:20;;;;;;;21.60;9.35;;;;;;;19.00;18.87;97700.50;5010863;28;20061;-79
2022/02/15 00:48:46;;;;;;;24.58;9.90;;;;;;;18.94;18.61;97688.25;5007881;28;20042;-79
2022/02/15 00:51:13;;;;;;;18.30;8.80;;;;;;;19.00;18.97;97689.38;5010450;28;20045;-79
2022/02/15 00:53:39;;;;;;;21.05;7.97;;;;;;;20.27;17.56;97690.91;5010642;28;20065;-79
2022/02/15 00:56:06;;;;;;;22.23;9.32;;;;;;;19.85;17.75;97677.47;5002708;28;20459;-79
2022/02/15 00:58:32;;;;;;;23.67;9.85;;;;;;;17.39;20.56;97682.50;5007996;28;20084;-79
2022/02/15 01:00:58;;;;;;;18.45;8.57;;;;;;;19.16;18.71;97692.41;5008400;28;20037;-79
2022/02/15 01:03:24;;;;;;;21.83;9.18;;;;;;;19.56;18.27;97678.94;5009626;28;20087;-79
2022/02/15 01:05:50;;;;;;;17.13;8.18;;;;;;;17.36;20.70;97686.09;5009273;28;20468;-79
2022/02/15 01:08:16;;;;;;;20.63;9.48;;;;;;;18.41;19.96;97684.97;5010073;28;20037;-79
2022/02/15 01:10:42;;;;;;;23.63;9.48;;;;;;;19.55;18.53;97669.03;5010125;28;20132;-79
2022/02/15 01:13:08;;;;;;;18.17;8.85;;;;;;;19.32;18.76;97670.41;5011254;28;20762;-79
2022/02/15 01:15:35;;;;;;;19.60;8.70;;;;;;;20.07;18.09;97666.88;5011311;28;20033;-79
2022/02/15 01:18:01;;;;;;;20.35;8.52;;;;;;;20.37;17.47;97664.91;5009623;28;20052;-79
2022/02/15 01:20:27;;;;;;;16.75;8.13;;;;;;;20.46;17.55;97659.59;5010132;28;20117;-79
2022/02/15 01:29:38;;;;;;;17.85;7.28;;;;;;;19.00;18.95;97647.63;5007206;28;20053;-79
2022/02/15 01:32:05;;;;;;;19.98;8.52;;;;;;;18.78;19.05;97649.03;5011474;28;20029;-79
2022/02/15 01:34:31;;;;;;;16.42;8.20;;;;;;;18.30;19.82;97651.69;5009888;28;20040;-79
2022/02/15 01:36:57;;;;;;;14.00;6.97;;;;;;;19.37;18.65;97644.13;5010364;28;20099;-79
2022/02/15 01:39:23;;;;;;;17.60;8.23;;;;;;;19.37;18.54;97637.81;5009629;28;20037;-79
2022/02/15 01:41:49;;;;;;;17.85;8.27;;;;;;;18.63;19.55;97634.44;5009462;28;20117;-79
2022/02/15 01:44:18;;;;;;;19.35;8.88;;;;;;;18.54;19.54;97636.88;5010068;28;20062;-79
2022/02/15 01:46:45;;;;;;;19.83;8.05;;;;;;;18.08;20.06;97630.78;5008088;28;20026;-79
2022/02/15 01:49:11;;;;;;;19.23;7.40;;;;;;;17.60;20.48;97635.31;5010537;28;20065;-79
2022/02/15 01:51:37;;;;;;;19.30;7.75;;;;;;;17.22;21.10;97634.97;5010307;28;20042;-79
2022/02/15 01:54:03;;;;;;;18.20;8.35;;;;;;;18.15;20.25;97635.50;5009637;28;20096;-79
2022/02/15 01:56:29;;;;;;;16.10;7.60;;;;;;;19.47;18.76;97622.97;5008163;28;20037;-79
2022/02/15 01:58:56;;;;;;;16.88;7.97;;;;;;;18.92;19.29;97625.88;5010052;28;20034;-79
2022/02/15 02:01:22;;;;;;;16.13;7.85;;;;;;;18.58;19.64;97634.06;5009491;28;20235;-79
2022/02/15 02:03:48;;;;;;;17.23;7.38;;;;;;;19.10;19.15;97632.06;5010291;28;20478;-79
2022/02/15 02:06:15;;;;;;;15.10;7.50;;;;;;;19.92;18.31;97627.22;5009752;28;20034;-79
2022/02/15 02:08:41;;;;;;;21.13;8.70;;;;;;;20.02;18.17;97632.66;5012092;28;20501;-79
2022/02/15 02:11:07;;;;;;;14.98;7.35;;;;;;;20.56;17.48;97629.97;5013606;28;20026;-79
2022/02/15 02:13:34;;;;;;;14.55;6.82;;;;;;;20.13;17.82;97634.53;5014203;28;20022;-76
2022/02/15 02:16:00;;;;;;;16.58;6.93;;;;;;;19.81;18.19;97640.50;5012953;28;20072;-79
2022/02/15 02:18:26;;;;;;;15.48;6.80;;;;;;;19.46;18.58;97630.56;5012975;28;20014;-79
2022/02/15 02:20:52;;;;;;;11.88;6.32;;;;;;;19.67;18.46;97633.09;5013057;28;20053;-77
2022/02/15 02:23:20;;;;;;;16.42;6.40;;;;;;;20.54;17.76;97629.59;5012187;28;20022;-77
2022/02/15 02:25:47;;;;;;;15.57;7.40;;;;;;;20.89;17.09;97637.41;5013127;28;20030;-77
2022/02/15 02:28:13;;;;;;;13.82;6.15;;;;;;;21.12;16.97;97622.72;5013202;28;20026;-77
2022/02/15 02:30:40;;;;;;;14.80;6.28;;;;;;;21.20;16.80;97629.75;5012355;28;20447;-77
2022/02/15 02:33:06;;;;;;;16.67;7.20;;;;;;;20.84;17.10;97628.75;5012293;28;20037;-77
2022/02/15 02:35:34;;;;;;;15.43;7.30;;;;;;;20.18;17.61;97631.28;5012877;28;20033;-78
2022/02/15 02:38:00;;;;;;;12.40;6.63;;;;;;;20.40;17.68;97632.56;5012108;28;20037;-77
2022/02/15 02:40:26;;;;;;;12.25;6.15;;;;;;;20.22;17.76;97627.25;5012807;28;20030;-77
2022/02/15 02:42:52;;;;;;;18.58;7.85;;;;;;;20.11;17.86;97628.59;5008994;28;20119;-78
2022/02/15 02:45:20;;;;;;;13.73;6.82;;;;;;;20.05;17.90;97625.47;5012109;28;20553;-77
2022/02/15 02:47:48;;;;;;;11.77;5.63;;;;;;;20.48;17.72;97623.72;5011528;28;20477;-77
2022/02/15 02:50:17;;;;;;;15.13;6.68;;;;;;;20.87;17.25;97619.50;5012462;28;20037;-77
2022/02/15 02:52:44;;;;;;;13.63;6.03;;;;;;;21.38;16.53;97621.81;5012833;28;20029;-77
2022/02/15 02:55:11;;;;;;;15.20;7.55;;;;;;;21.01;16.96;97627.63;5012408;28;20034;-77
2022/02/15 02:57:38;;;;;;;14.35;7.30;;;;;;;20.55;17.56;97629.19;5012036;28;20053;-77
2022/02/15 03:00:07;;;;;;;11.88;7.07;;;;;;;20.48;17.81;97628.50;5013191;28;20038;-77
2022/02/15 03:02:33;;;;;;;15.25;7.50;;;;;;;21.06;17.06;97627.19;5028673;28;20451;-77
2022/02/15 03:04:59;;;;;;;13.75;6.70;;;;;;;20.85;17.23;97628.31;5010848;28;20034;-77
2022/02/15 03:07:25;;;;;;;17.90;7.55;;;;;;;20.88;17.18;97633.06;5011655;28;20083;-77
2022/02/15 03:09:51;;;;;;;16.33;8.52;;;;;;;20.55;17.52;97633.97;5012287;28;20030;-77
2022/02/15 03:12:17;;;;;;;14.10;7.22;;;;;;;20.33;17.57;97636.25;5012816;28;20569;-77
2022/02/15 03:14:44;;;;;;;13.70;6.50;;;;;;;20.63;17.40;97627.84;5012356;28;20163;-79
2022/02/15 03:17:11;;;;;;;13.07;5.78;;;;;;;20.05;18.11;97621.91;5011725;28;20056;-77
2022/02/15 03:19:37;;;;;;;12.82;6.15;;;;;;;20.49;17.85;97624.50;5009183;28;20061;-78
2022/02/15 03:22:03;;;;;;;14.00;6.32;;;;;;;20.88;17.24;97624.69;5011973;28;20068;-77
2022/02/15 03:24:29;;;;;;;18.90;7.50;;;;;;;20.27;17.99;97628.78;5011958;28;20033;-77
2022/02/15 03:26:56;;;;;;;17.70;8.30;;;;;;;20.16;18.41;97619.75;5011900;28;20030;-77
2022/02/15 03:29:22;;;;;;;12.68;7.13;;;;;;;20.29;18.19;97629.16;5011677;28;20075;-77
2022/02/15 03:31:48;;;;;;;13.07;6.57;;;;;;;20.51;18.00;97630.44;5011844;28;20475;-78
2022/02/15 03:34:14;;;;;;;15.25;6.90;;;;;;;20.27;18.13;97628.78;5012007;28;20049;-78
2022/02/15 03:36:40;;;;;;;15.30;6.82;;;;;;;20.34;17.94;97626.69;5005386;28;20172;-77
2022/02/15 03:39:08;;;;;;;16.05;6.85;;;;;;;20.22;18.19;97624.47;5012542;28;20501;-77
2022/02/15 03:44:19;;;;;;;15.52;7.32;;;;;;;20.18;18.17;97631.28;5011996;28;20048;-78
2022/02/15 03:46:45;;;;;;;13.13;6.85;;;;;;;19.20;19.31;97633.97;5011836;28;20132;-78
2022/02/15 03:49:12;;;;;;;12.50;6.07;;;;;;;19.61;18.88;97631.97;5008039;28;20098;-77
2022/02/15 03:51:39;;;;;;;14.70;6.93;;;;;;;19.11;19.58;97630.88;5009462;28;20045;-77
2022/02/15 03:54:06;;;;;;;14.30;5.68;;;;;;;19.89;18.80;97640.00;5011066;28;20064;-77
2022/02/15 03:56:32;;;;;;;13.63;5.75;;;;;;;19.98;18.76;97631.13;5011550;28;20486;-77
2022/02/15 03:58:59;;;;;;;13.68;7.03;;;;;;;19.73;19.15;97637.00;5011580;28;20026;-78
2022/02/15 04:01:26;;;;;;;12.27;5.82;;;;;;;19.69;18.87;97636.25;5011045;28;20042;-78
2022/02/15 04:03:52;;;;;;;12.80;6.88;;;;;;;20.07;18.63;97633.41;5010975;28;20450;-78
2022/02/15 04:06:18;;;;;;;14.80;6.93;;;;;;;20.17;18.60;97633.25;5011226;28;20030;-77
2022/02/15 04:08:44;;;;;;;17.00;7.40;;;;;;;20.37;18.56;97636.22;5012333;28;20053;-78
2022/02/15 04:11:12;;;;;;;15.88;7.10;;;;;;;20.29;18.56;97635.53;5012167;28;20073;-77
2022/02/15 04:13:38;;;;;;;19.05;8.23;;;;;;;19.93;18.88;97631.56;5010037;28;20176;-78
2022/02/15 04:16:05;;;;;;;18.23;8.38;;;;;;;19.92;18.87;97628.03;5010966;28;20103;-78
2022/02/15 04:18:32;;;;;;;16.38;7.30;;;;;;;20.39;18.32;97636.59;5011288;28;20022;-77
2022/02/15 04:20:58;;;;;;;14.48;7.10;;;;;;;20.22;18.71;97630.03;5010891;28;20124;-76
2022/02/15 04:23:24;;;;;;;12.90;7.25;;;;;;;20.33;18.36;97632.66;5011213;28;20033;-78
2022/02/15 04:25:51;;;;;;;11.95;5.70;;;;;;;20.61;18.00;97638.63;5009882;28;20142;-78
2022/02/15 04:28:18;;;;;;;12.18;6.53;;;;;;;20.87;17.65;97623.09;5011928;28;20030;-78
2022/02/15 04:30:44;;;;;;;15.38;6.72;;;;;;;20.61;18.12;97635.84;5011716;28;20092;-78
2022/02/15 04:33:11;;;;;;;10.82;5.32;;;;;;;21.00;17.50;97632.47;5004298;28;20026;-78
2022/02/15 04:35:37;;;;;;;11.55;6.28;;;;;;;21.25;17.36;97630.06;5008412;28;20116;-78
2022/02/15 04:38:03;;;;;;;13.63;5.88;;;;;;;21.45;17.26;97637.69;5009299;28;20532;-77
2022/02/15 04:40:30;;;;;;;12.85;5.88;;;;;;;21.77;16.82;97633.06;5010716;28;20041;-78
2022/02/15 04:42:56;;;;;;;11.57;6.10;;;;;;;21.52;16.95;97637.56;5009519;28;20034;-77
2022/02/15 04:45:22;;;;;;;11.10;5.57;;;;;;;21.31;16.88;97636.72;5010043;28;20100;-77
2022/02/15 04:47:48;;;;;;;10.45;5.03;;;;;;;21.14;17.36;97648.97;5010669;28;20026;-78
2022/02/15 04:50:14;;;;;;;10.35;5.15;;;;;;;21.40;17.20;97641.75;5010593;28;20045;-78
2022/02/15 04:52:40;;;;;;;10.15;5.10;;;;;;;21.51;16.89;97641.56;5010667;28;20033;-77
2022/02/15 04:55:07;;;;;;;11.75;5.78;;;;;;;21.66;17.06;97646.44;5010092;28;20030;-78
2022/02/15 04:57:33;;;;;;;10.82;5.18;;;;;;;21.75;16.72;97651.47;5010742;28;20515;-77
2022/02/15 04:59:59;;;;;;;11.65;5.43;;;;;;;21.60;16.31;97652.97;5010537;28;20046;-78
2022/02/15 05:02:25;;;;;;;11.18;5.45;;;;;;;21.27;17.02;97657.53;5010976;28;20026;-77
2022/02/15 05:04:53;;;;;;;10.10;4.85;;;;;;;20.83;17.41;97649.47;5009794;28;20034;-77
2022/02/15 05:07:21;;;;;;;10.00;5.25;;;;;;;21.14;16.95;97653.78;5009974;28;20041;-77
2022/02/15 05:09:48;;;;;;;10.65;5.07;;;;;;;21.41;16.47;97648.91;5007676;28;20022;-77
2022/02/15 05:12:15;;;;;;;7.30;4.32;;;;;;;21.59;16.61;97654.16;5008823;28;20069;-78
2022/02/15 05:14:41;;;;;;;9.07;4.70;;;;;;;21.50;16.93;97651.13;5010115;28;20490;-77
2022/02/15 05:17:08;;;;;;;10.30;4.85;;;;;;;21.53;16.96;97656.69;5007708;28;20116;-77
2022/02/15 05:19:34;;;;;;;9.40;4.95;;;;;;;21.44;16.59;97661.25;5010969;28;20052;-77
2022/02/15 05:22:01;;;;;;;9.25;4.63;;;;;;;21.42;16.52;97658.09;5010120;28;20057;-78
2022/02/15 05:24:27;;;;;;;12.15;5.40;;;;;;;21.48;16.69;97667.53;5010558;28;20557;-77
2022/02/15 05:26:54;;;;;;;10.82;5.40;;;;;;;21.20;16.49;97664.03;5010565;28;20034;-77
2022/02/15 05:29:20;;;;;;;10.27;5.03;;;;;;;20.98;16.84;97665.56;5008680;28;20038;-78
2022/02/15 05:31:49;;;;;;;8.52;4.43;;;;;;;20.95;16.82;97676.78;5001426;28;20766;-78
2022/02/15 05:34:15;;;;;;;8.35;4.30;;;;;;;21.08;16.60;97672.22;5008817;28;20033;-77
2022/02/15 05:36:41;;;;;;;10.45;4.95;;;;;;;20.98;16.40;97670.38;5010088;28;20030;-78
2022/02/15 05:39:08;;;;;;;12.38;5.13;;;;;;;21.08;16.26;97675.00;5010095;28;20084;-77
2022/02/15 05:41:35;;;;;;;12.70;5.07;;;;;;;21.32;16.01;97666.22;5010419;28;20061;-78
2022/02/15 05:44:01;;;;;;;8.32;4.65;;;;;;;21.16;15.84;97671.69;5016197;28;20045;-77
2022/02/15 05:46:27;;;;;;;10.23;5.45;;;;;;;21.04;15.93;97672.28;5012726;28;20034;-78
2022/02/15 05:48:53;;;;;;;9.07;5.05;;;;;;;20.79;16.32;97677.44;5028459;28;20517;-78
2022/02/15 05:51:19;;;;;;;10.90;5.50;;;;;;;20.85;16.83;97678.53;5013972;28;20041;-78
2022/02/15 05:53:45;;;;;;;8.50;4.47;;;;;;;20.64;17.11;97673.28;5012589;28;20033;-78
2022/02/15 05:56:11;;;;;;;11.45;5.00;;;;;;;20.62;17.11;97670.91;5013748;28;20113;-78
2022/02/15 05:58:38;;;;;;;8.05;4.60;;;;;;;20.59;17.34;97671.75;5014584;28;20386;-77
2022/02/15 06:01:04;;;;;;;9.80;4.93;;;;;;;20.61;17.37;97663.75;5012211;28;20042;-77
2022/02/15 06:06:15;;;;;;;7.25;3.67;;;;;;;21.01;17.54;97667.50;5013749;28;20100;-78
2022/02/15 06:08:41;;;;;;;10.55;5.40;;;;;;;20.98;17.21;97667.59;5014430;28;20056;-78
2022/02/15 06:11:07;;;;;;;11.82;5.85;;;;;;;21.14;16.98;97660.13;5012279;28;20413;-78
2022/02/15 06:13:33;;;;;;;54.38;17.42;;;;;;;21.39;17.20;97668.09;5012335;28;20026;-78
2022/02/15 06:15:59;;;;;;;12.18;5.47;;;;;;;21.00;17.56;97662.38;5011545;28;20045;-78
2022/02/15 06:18:26;;;;;;;11.82;5.75;;;;;;;20.32;18.41;97675.72;5012117;28;20049;-77
2022/02/15 06:20:52;;;;;;;13.20;6.07;;;;;;;19.85;19.37;97680.25;5011493;28;20050;-78
2022/02/15 06:23:18;;;;;;;14.70;7.07;;;;;;;19.63;19.64;97687.22;5012266;28;20038;-78
2022/02/15 06:25:44;;;;;;;11.05;6.28;;;;;;;20.30;18.95;97689.28;5010979;28;20444;-77
2022/02/15 06:28:10;;;;;;;11.40;6.40;;;;;;;20.92;18.57;97691.59;5013036;28;20493;-78
2022/02/15 06:30:36;;;;;;;13.40;6.88;;;;;;;21.41;17.76;97688.00;5010006;28;20092;-78
2022/02/15 06:33:02;;;;;;;21.25;8.30;;;;;;;21.67;17.21;97686.34;5010638;28;20543;-78
2022/02/15 06:35:29;;;;;;;24.08;9.13;;;;;;;21.82;16.93;97691.25;5012003;28;20084;-78
2022/02/15 06:37:55;;;;;;;12.10;5.93;;;;;;;21.84;17.15;97693.66;5012699;28;21177;-77
2022/02/15 06:40:21;;;;;;;11.55;5.97;;;;;;;21.61;17.39;97699.25;5010151;28;20042;-77
2022/02/15 06:42:48;;;;;;;15.02;6.38;;;;;;;21.67;17.36;97705.91;5012342;28;20040;-77
2022/02/15 06:45:15;;;;;;;11.00;5.40;;;;;;;21.46;17.82;97707.09;5012317;28;20034;-77
2022/02/15 06:47:42;;;;;;;11.60;5.35;;;;;;;21.56;17.75;97714.50;5025138;28;20121;-77
2022/02/15 06:50:08;;;;;;;8.25;5.03;;;;;;;21.99;17.37;97714.50;5013933;28;20113;-77
2022/02/15 06:52:35;;;;;;;7.80;4.65;;;;;;;22.41;17.11;97724.06;5012566;28;20030;-77
2022/02/15 06:55:01;;;;;;;11.05;6.43;;;;;;;22.76;16.56;97720.53;5018813;28;20065;-77
2022/02/15 06:57:27;;;;;;;21.40;9.38;;;;;;;22.90;16.66;97731.41;5011161;28;20142;-77
2022/02/15 06:59:53;;;;;;;42.22;18.23;;;;;;;22.89;16.41;97724.25;5004094;28;20038;-77
2022/02/15 07:02:19;;;;;;;70.45;29.38;;;;;;;23.14;16.18;97738.44;5005082;28;20084;-77
2022/02/15 07:04:46;;;;;;;35.30;16.20;;;;;;;23.34;15.92;97729.94;5003641;28;20037;-77
2022/02/15 07:07:13;;;;;;;51.25;21.30;;;;;;;23.39;16.07;97729.47;5004286;28;20076;-77
2022/02/15 07:09:40;;;;;;;22.10;10.10;;;;;;;23.37;16.18;97734.72;5009538;28;20046;-77
2022/02/15 07:12:07;;;;;;;26.73;12.15;;;;;;;23.61;15.97;97735.34;5005673;28;20034;-77
2022/02/15 07:14:34;;;;;;;67.60;20.13;;;;;;;23.78;15.43;97737.66;5008379;28;20042;-77
2022/02/15 07:17:00;;;;;;;44.03;15.52;;;;;;;23.95;15.24;97742.03;5004526;28;20497;-77
2022/02/15 07:19:32;;;;;;;30.85;13.23;;;;;;;24.03;15.34;97745.44;5011623;28;20040;-77
2022/02/15 07:21:59;;;;;;;34.70;14.25;;;;;;;23.85;15.49;97743.09;5012996;28;20502;-77
2022/02/15 07:24:25;;;;;;;44.47;15.55;;;;;;;24.12;15.55;97751.22;5016919;28;20101;-77
2022/02/15 07:26:51;;;;;;;56.65;18.85;;;;;;;24.33;15.16;97749.84;5003979;28;20065;-77
2022/02/15 07:29:17;;;;;;;36.85;16.80;;;;;;;24.42;15.19;97742.34;5005433;28;20029;-77
2022/02/15 07:31:43;;;;;;;73.03;23.90;;;;;;;24.57;15.00;97746.34;5009361;28;20037;-78
2022/02/15 07:34:10;;;;;;;38.05;18.75;;;;;;;24.63;15.08;97744.53;5009767;28;20030;-77
2022/02/15 07:36:36;;;;;;;35.88;15.93;;;;;;;24.57;15.17;97749.16;5008517;28;20038;-77
2022/02/15 07:39:02;;;;;;;33.85;13.75;;;;;;;24.48;15.10;97748.22;5009297;28;20030;-78
2022/02/15 07:41:29;;;;;;;23.20;12.00;;;;;;;24.46;15.35;97753.47;5010365;28;20501;-78
2022/02/15 07:43:56;;;;;;;22.48;11.63;;;;;;;24.37;15.38;97762.53;5004873;28;20556;-78
2022/02/15 07:46:23;;;;;;;31.00;14.00;;;;;;;24.48;15.07;97760.22;5012063;28;20033;-78
2022/02/15 07:48:50;;;;;;;23.20;11.88;;;;;;;24.60;15.28;97764.28;5003053;28;20065;-78
2022/02/15 07:51:19;;;;;;;26.70;12.32;;;;;;;24.18;15.89;97765.50;5007636;28;20402;-78
2022/02/15 07:53:45;;;;;;;25.23;12.05;;;;;;;24.14;16.09;97759.97;5006570;28;20461;-78
2022/02/15 07:56:12;;;;;;;25.60;13.43;;;;;;;24.12;16.14;97765.25;5009202;28;20037;-77
2022/02/15 07:58:38;;;;;;;20.15;10.70;;;;;;;24.07;16.30;97765.78;5011947;28;20088;-78
2022/02/15 08:01:05;;;;;;;25.00;10.82;;;;;;;24.04;16.55;97778.63;5008990;28;20045;-77
2022/02/15 08:03:31;;;;;;;25.90;12.63;;;;;;;23.84;16.60;97771.56;5008675;28;20061;-77
2022/02/15 08:05:57;;;;;;;23.30;11.77;;;;;;;23.94;16.84;97774.09;5006920;28;20065;-77
2022/02/15 08:08:24;;;;;;;24.08;12.15;;;;;;;24.40;16.28;97778.50;5007827;28;20088;-78
2022/02/15 08:10:50;;;;;;;21.75;11.93;;;;;;;24.74;15.71;97770.28;5006599;28;20066;-78
2022/02/15 08:13:21;;;;;;;22.63;10.85;;;;;;;25.05;15.85;97770.59;5004294;28;20030;-77
2022/02/15 08:15:51;;;;;;;23.98;11.35;;;;;;;25.01;15.75;97764.28;5012498;28;20099;-78
2022/02/15 08:18:17;;;;;;;24.40;13.05;;;;;;;24.60;16.95;97762.25;5003907;28;20034;-77
2022/02/15 08:20:44;;;;;;;23.25;11.15;;;;;;;24.51;16.94;97769.75;5006890;28;20493;-78
2022/02/15 08:23:10;;;;;;;17.20;9.13;;;;;;;24.49;16.86;97770.22;5007564;28;20040;-77
2022/02/15 08:25:37;;;;;;;17.65;9.88;;;;;;;24.42;17.10;97764.81;5009836;28;20385;-78
2022/02/15 08:28:03;;;;;;;16.45;9.05;;;;;;;24.82;16.35;97765.28;5003213;28;20045;-78
2022/02/15 08:30:29;;;;;;;15.45;7.88;;;;;;;24.78;16.54;97755.38;5004227;28;20398;-78
2022/02/15 08:32:55;;;;;;;14.25;7.60;;;;;;;25.16;16.08;97765.41;5006511;28;20084;-77
2022/02/15 08:35:21;;;;;;;11.35;6.40;;;;;;;25.08;16.44;97764.06;5014031;28;20107;-78
2022/02/15 08:37:49;;;;;;;13.18;6.07;;;;;;;25.27;16.19;97767.91;5003309;28;20022;-78
2022/02/15 08:40:18;;;;;;;8.50;5.25;;;;;;;25.44;15.45;97760.16;4997885;28;20053;-78
2022/02/15 08:42:44;;;;;;;10.95;6.18;;;;;;;24.74;16.20;97755.44;5007121;28;20116;-77
2022/02/15 08:45:11;;;;;;;11.23;6.55;;;;;;;23.97;16.87;97770.41;5005569;28;20394;-77
2022/02/15 08:47:38;;;;;;;9.65;5.75;;;;;;;24.66;16.75;97752.09;5009243;28;20482;-77
2022/02/15 08:50:07;;;;;;;9.25;4.97;;;;;;;24.92;16.60;97752.16;5009335;28;20033;-77
2022/02/15 08:52:36;;;;;;;12.15;7.43;;;;;;;24.51;16.96;97750.09;5010161;28;20056;-77
2022/02/15 08:55:06;;;;;;;10.88;6.35;;;;;;;24.02;16.99;97749.44;5007759;28;20393;-77
2022/02/15 08:57:33;;;;;;;8.17;5.17;;;;;;;24.59;17.43;97745.88;5007548;28;20070;-77
2022/02/15 08:59:59;;;;;;;10.50;5.28;;;;;;;24.83;17.00;97747.19;5007236;28;20478;-77
2022/02/15 09:02:26;;;;;;;9.60;4.90;;;;;;;25.78;16.44;97754.59;5008160;28;20030;-78
2022/02/15 09:04:53;;;;;;;7.80;4.70;;;;;;;26.39;16.02;97752.06;5008419;28;20029;-79
2022/02/15 09:07:19;;;;;;;9.23;5.28;;;;;;;26.94;15.45;97758.84;5009105;28;20099;-79
2022/02/15 09:09:45;;;;;;;11.27;4.95;;;;;;;27.21;14.15;97770.25;5005080;28;20038;-79
2022/02/15 09:12:11;;;;;;;7.18;4.65;;;;;;;27.17;15.18;97766.78;5010395;28;20046;-79
2022/02/15 09:14:38;;;;;;;6.65;3.20;;;;;;;26.38;15.06;97767.38;5004761;28;20058;-79
2022/02/15 09:17:05;;;;;;;10.18;5.35;;;;;;;25.76;15.57;97771.94;5008259;28;20030;-79
2022/02/15 09:19:31;;;;;;;10.95;4.40;;;;;;;26.32;15.61;97777.66;5013117;28;20062;-79
2022/02/15 09:21:59;;;;;;;8.93;3.50;;;;;;;25.76;15.66;97774.75;5002820;28;20054;-79
2022/02/15 09:24:27;;;;;;;6.43;3.63;;;;;;;26.67;15.14;97775.56;5007541;28;20026;-79
2022/02/15 09:26:53;;;;;;;9.38;4.00;;;;;;;27.27;14.99;97778.91;5000703;28;20084;-79
2022/02/15 09:29:19;;;;;;;6.03;3.50;;;;;;;27.13;14.59;97779.47;5007968;28;20509;-79
2022/02/15 09:31:46;;;;;;;5.05;3.38;;;;;;;27.06;14.64;97777.72;5010108;28;20026;-79
2022/02/15 09:34:12;;;;;;;4.13;3.22;;;;;;;27.19;14.46;97784.03;5008485;28;20152;-79
2022/02/15 09:36:39;;;;;;;5.53;3.78;;;;;;;27.31;14.13;97782.34;5013606;28;20065;-79
2022/02/15 09:39:06;;;;;;;4.25;2.75;;;;;;;27.15;14.56;97783.38;5004926;28;20034;-79
2022/02/15 09:41:34;;;;;;;4.75;3.17;;;;;;;27.23;14.43;97783.91;5007088;28;20034;-79
2022/02/15 09:44:02;;;;;;;4.30;2.88;;;;;;;27.55;14.37;97786.25;5012608;28;20035;-79
2022/02/15 09:46:28;;;;;;;5.20;2.92;;;;;;;27.41;14.30;97778.38;5010299;28;20033;-79
2022/02/15 09:48:55;;;;;;;4.57;3.15;;;;;;;27.41;14.14;97775.56;5009728;28;20431;-79
2022/02/15 09:51:25;;;;;;;6.03;3.83;;;;;;;26.72;14.80;97777.78;5008462;28;20038;-79
2022/02/15 09:53:52;;;;;;;6.10;3.40;;;;;;;26.50;15.10;97779.81;5010258;28;20026;-79
2022/02/15 09:56:18;;;;;;;6.25;3.50;;;;;;;26.60;14.90;97779.44;5003742;28;20033;-79
2022/02/15 09:58:44;;;;;;;6.10;2.92;;;;;;;27.15;14.16;97776.97;5006214;28;20062;-80
2022/02/15 10:01:14;;;;;;;11.38;5.05;;;;;;;27.42;13.73;97771.50;4999945;28;20052;-79
2022/02/15 10:03:47;;;;;;;21.13;7.87;;;;;;;27.26;14.27;97774.50;5005339;28;20041;-79
2022/02/15 10:06:13;;;;;;;16.15;6.95;;;;;;;27.54;13.87;97767.75;5003713;28;20038;-79
2022/02/15 10:08:40;;;;;;;10.13;5.38;;;;;;;27.38;13.64;97765.97;5020183;28;20034;-79
2022/02/15 10:11:11;;;;;;;9.65;4.78;;;;;;;27.19;13.93;97777.63;5003745;28;20415;-79
2022/02/15 10:13:47;;;;;;;7.38;4.05;;;;;;;27.64;13.90;97763.72;5018715;28;20022;-79
2022/02/15 10:16:15;;;;;;;14.68;4.35;;;;;;;27.59;13.99;97764.31;5001349;28;20398;-79
2022/02/15 10:18:41;;;;;;;5.85;3.13;;;;;;;28.02;13.75;97769.00;5000006;28;20121;-79
2022/02/15 10:21:08;;;;;;;4.60;2.85;;;;;;;28.23;13.41;97770.13;5001118;28;20050;-79
2022/02/15 10:23:34;;;;;;;5.72;3.35;;;;;;;28.20;13.55;97757.72;5006302;28;20026;-79
2022/02/15 10:26:01;;;;;;;6.43;3.05;;;;;;;28.41;13.33;97764.47;5004063;28;20036;-79
2022/02/15 10:28:30;;;;;;;4.00;2.72;;;;;;;28.21;13.53;97756.47;5003585;28;20045;-79
2022/02/15 10:30:59;;;;;;;5.15;3.55;;;;;;;28.44;13.47;97757.88;5007925;28;20034;-79
2022/02/15 10:33:33;;;;;;;7.30;3.25;;;;;;;28.49;13.42;97760.09;5003749;28;20048;-79
2022/02/15 10:36:08;;;;;;;3.47;2.53;;;;;;;28.56;13.49;97760.56;5012090;28;20030;-79
2022/02/15 10:38:39;;;;;;;8.93;3.42;;;;;;;28.73;12.96;97755.34;5006121;28;20037;-79
2022/02/15 10:41:08;;;;;;;4.50;2.60;;;;;;;28.94;13.31;97759.25;5013322;28;20045;-80
2022/02/15 10:43:56;;;;;;;7.38;3.55;;;;;;;28.68;13.49;97753.94;5010544;28;20371;-79
2022/02/15 10:46:22;;;;;;;4.57;2.72;;;;;;;28.70;13.49;97757.13;5004994;28;20034;-79
2022/02/15 10:48:49;;;;;;;3.17;2.67;;;;;;;28.97;13.04;97764.72;5006106;28;20057;-80
2022/02/15 10:51:17;;;;;;;2.88;2.33;;;;;;;28.87;12.72;97760.34;5004433;28;20116;-80
2022/02/15 10:53:43;;;;;;;4.55;2.53;;;;;;;29.21;13.07;97762.81;5008493;28;20068;-79
2022/02/15 10:56:10;;;;;;;3.53;2.53;;;;;;;29.08;12.91;97759.34;5009032;28;20029;-79
2022/02/15 10:58:37;;;;;;;3.35;2.17;;;;;;;29.57;12.89;97766.75;5008556;28;20034;-79
2022/02/15 11:01:06;;;;;;;3.33;2.40;;;;;;;29.62;12.65;97754.75;5004722;28;20145;-80
2022/02/15 11:03:37;;;;;;;2.65;1.77;;;;;;;29.80;12.33;97757.53;5010702;28;20029;-80
2022/02/15 11:06:04;;;;;;;3.70;2.97;;;;;;;29.36;12.94;97766.50;5011004;28;20505;-80
2022/02/15 11:08:32;;;;;;;7.30;3.33;;;;;;;29.15;12.29;97770.31;5010446;28;20030;-80
2022/02/15 11:11:07;;;;;;;5.07;3.38;;;;;;;29.41;12.99;97771.53;5007783;28;20113;-80
2022/02/15 11:13:38;;;;;;;3.40;2.33;;;;;;;29.58;12.77;97763.44;5008623;28;20030;-80
2022/02/15 11:16:15;;;;;;;4.38;2.60;;;;;;;29.36;13.04;97766.50;5010210;28;20042;-80
2022/02/15 11:18:43;;;;;;;6.57;3.30;;;;;;;27.52;13.81;97763.81;5015510;28;20026;-80
2022/02/15 11:21:21;;;;;;;4.90;2.90;;;;;;;28.18;13.39;97767.91;5008926;28;20103;-79
2022/02/15 11:24:14;;;;;;;7.00;3.70;;;;;;;27.44;13.68;97771.03;5003048;28;20038;-79
2022/02/15 11:26:42;;;;;;;6.10;3.08;;;;;;;27.44;13.84;97771.03;5010695;28;20048;-79
2022/02/15 11:29:25;;;;;;;6.05;3.42;;;;;;;28.11;13.60;97780.31;5005805;28;20030;-79
2022/02/15 11:31:55;;;;;;;11.18;4.10;;;;;;;28.84;13.37;97769.00;5009886;28;20029;-79
2022/02/15 11:34:34;;;;;;;11.57;2.90;;;;;;;29.43;12.84;97768.22;5006764;28;20034;-79
2022/02/15 11:37:00;;;;;;;4.70;3.55;;;;;;;27.73;13.67;97772.19;5006981;28;20077;-80